createdAt,value
2022-11-30T00:01:29.202Z,1.70
2022-11-30T00:04:02.158Z,1.70
2022-11-30T00:06:46.360Z,1.70
2022-11-30T00:09:30.777Z,1.70
2022-11-30T00:15:30.332Z,1.70
2022-11-30T00:18:22.871Z,1.80
2022-11-30T00:21:09.085Z,1.80
2022-11-30T00:23:43.503Z,1.70
2022-11-30T00:26:26.546Z,1.70
2022-11-30T00:29:14.388Z,1.80
2022-11-30T00:32:03.052Z,1.80
2022-11-30T00:34:36.052Z,1.70
2022-11-30T00:37:07.490Z,1.60
2022-11-30T00:39:47.047Z,1.70
2022-11-30T00:45:10.238Z,1.70
2022-11-30T00:47:39.112Z,1.70
2022-11-30T00:50:10.243Z,1.70
2022-11-30T00:52:57.551Z,1.70
2022-11-30T00:55:46.631Z,1.70
2022-11-30T00:58:28.081Z,1.70
2022-11-30T01:01:32.242Z,1.80
2022-11-30T01:04:13.434Z,1.80
2022-11-30T01:07:11.070Z,1.80
2022-11-30T01:10:12.040Z,1.80
2022-11-30T01:12:47.877Z,1.70
2022-11-30T01:15:42.745Z,1.70
2022-11-30T01:18:18.327Z,1.80
2022-11-30T01:21:16.042Z,1.70
2022-11-30T01:24:01.882Z,1.70
2022-11-30T01:27:06.519Z,1.70
2022-11-30T01:29:54.738Z,1.80
2022-11-30T01:32:25.462Z,1.80
2022-11-30T01:35:12.938Z,1.80
2022-11-30T01:37:47.425Z,1.80
2022-11-30T01:40:22.873Z,1.90
2022-11-30T01:42:57.943Z,1.90
2022-11-30T01:45:29.044Z,1.80
2022-11-30T01:48:05.021Z,1.80
2022-11-30T01:50:53.836Z,1.70
2022-11-30T01:53:41.404Z,1.80
2022-11-30T01:56:26.895Z,1.90
2022-11-30T01:59:48.694Z,1.90
2022-11-30T02:02:23.663Z,1.90
2022-11-30T02:05:19.782Z,1.80
2022-11-30T02:07:53.488Z,1.70
2022-11-30T02:13:57.910Z,1.80
2022-11-30T02:16:59.678Z,1.80
2022-11-30T02:23:47.970Z,1.90
2022-11-30T02:26:39.574Z,1.80
2022-11-30T02:29:47.749Z,1.80
2022-11-30T02:32:23.408Z,1.80
2022-11-30T02:35:08.546Z,1.80
2022-11-30T02:37:46.529Z,1.80
2022-11-30T02:40:32.219Z,1.80
2022-11-30T02:43:16.132Z,1.80
2022-11-30T02:46:17.864Z,1.80
2022-11-30T02:48:50.972Z,1.80
2022-11-30T02:51:50.084Z,1.90
2022-11-30T03:00:29.655Z,1.80
2022-11-30T03:03:13.731Z,1.90
2022-11-30T03:05:51.077Z,1.90
2022-11-30T03:08:44.004Z,1.80
2022-11-30T03:11:26.585Z,1.90
2022-11-30T03:14:06.669Z,1.80
2022-11-30T03:16:51.325Z,1.80
2022-11-30T03:19:25.346Z,1.80
2022-11-30T03:22:00.450Z,1.80
2022-11-30T03:24:43.416Z,1.80
2022-11-30T03:27:12.458Z,1.70
2022-11-30T03:29:40.941Z,1.80
2022-11-30T03:32:30.110Z,1.60
2022-11-30T03:35:21.282Z,1.60
2022-11-30T03:37:49.550Z,1.60
2022-11-30T03:40:39.373Z,1.60
2022-11-30T03:43:08.085Z,1.60
2022-11-30T03:45:38.411Z,1.50
2022-11-30T03:48:07.008Z,1.60
2022-11-30T03:50:41.954Z,1.60
2022-11-30T03:53:10.401Z,1.60
2022-11-30T03:55:38.497Z,1.60
2022-11-30T03:58:06.864Z,1.60
2022-11-30T04:00:35.348Z,1.60
2022-11-30T04:03:03.689Z,1.70
2022-11-30T04:05:31.967Z,1.70
2022-11-30T04:08:01.743Z,1.70
2022-11-30T04:10:33.066Z,1.70
2022-11-30T04:13:01.517Z,1.70
2022-11-30T04:15:37.442Z,1.90
2022-11-30T04:18:05.902Z,1.90
2022-11-30T04:20:40.092Z,1.90
2022-11-30T04:23:10.350Z,1.90
2022-11-30T04:25:39.373Z,1.90
2022-11-30T04:28:08.085Z,1.90
2022-11-30T04:30:37.413Z,1.90
2022-11-30T04:33:06.326Z,1.90
2022-11-30T04:35:35.330Z,2.00
2022-11-30T04:38:03.777Z,2.00
2022-11-30T04:40:33.448Z,2.00
2022-11-30T04:43:01.946Z,2.00
2022-11-30T04:45:35.067Z,1.90
2022-11-30T04:48:03.664Z,1.90
2022-11-30T04:50:32.081Z,2.00
2022-11-30T04:53:00.413Z,1.90
2022-11-30T04:55:30.204Z,1.90
2022-11-30T04:57:59.810Z,1.90
2022-11-30T05:00:28.039Z,1.80
2022-11-30T05:02:57.497Z,1.90
2022-11-30T05:05:25.720Z,1.90
2022-11-30T05:07:58.270Z,1.90
2022-11-30T05:10:27.756Z,1.90
2022-11-30T05:12:55.974Z,1.90
2022-11-30T05:15:25.904Z,1.90
2022-11-30T05:17:54.246Z,1.90
2022-11-30T05:20:22.443Z,1.90
2022-11-30T05:22:50.929Z,2.00
2022-11-30T05:25:19.161Z,1.90
2022-11-30T05:27:47.475Z,2.00
2022-11-30T05:30:16.694Z,1.90
2022-11-30T05:32:46.348Z,2.00
2022-11-30T05:35:14.690Z,2.00
2022-11-30T05:37:43.334Z,2.10
2022-11-30T05:40:12.159Z,2.00
2022-11-30T05:42:40.383Z,2.00
2022-11-30T05:45:09.752Z,2.00
2022-11-30T05:47:37.980Z,2.00
2022-11-30T05:50:09.709Z,2.00
2022-11-30T05:52:38.043Z,2.00
2022-11-30T05:55:06.867Z,2.00
2022-11-30T05:57:37.803Z,2.00
2022-11-30T06:00:07.757Z,1.90
2022-11-30T06:02:36.109Z,1.90
2022-11-30T06:05:04.732Z,1.90
2022-11-30T06:07:36.312Z,1.90
2022-11-30T06:10:04.859Z,1.90
2022-11-30T06:12:33.114Z,1.90
2022-11-30T06:15:02.292Z,2.00
2022-11-30T06:17:30.603Z,2.10
2022-11-30T06:19:59.341Z,2.00
2022-11-30T06:22:27.394Z,2.00
2022-11-30T06:24:56.885Z,2.00
2022-11-30T06:27:24.939Z,2.00
2022-11-30T06:29:55.463Z,2.00
2022-11-30T06:32:23.419Z,2.00
2022-11-30T06:34:51.550Z,2.00
2022-11-30T06:37:19.658Z,2.00
2022-11-30T06:40:06.125Z,2.00
2022-11-30T06:42:37.880Z,2.00
2022-11-30T06:45:07.554Z,2.00
2022-11-30T06:47:35.797Z,2.10
2022-11-30T06:50:04.113Z,2.10
2022-11-30T06:52:33.246Z,2.10
2022-11-30T06:55:01.576Z,2.10
2022-11-30T06:57:30.193Z,2.20
2022-11-30T06:59:59.959Z,2.10
2022-11-30T07:02:27.977Z,2.10
2022-11-30T07:04:56.230Z,2.10
2022-11-30T07:07:26.869Z,2.10
2022-11-30T07:09:55.240Z,2.20
2022-11-30T07:12:23.399Z,2.10
2022-11-30T07:14:52.972Z,2.20
2022-11-30T07:19:50.847Z,2.10
2022-11-30T07:22:18.862Z,1.90
2022-11-30T07:25:04.579Z,1.80
2022-11-30T07:27:32.913Z,2.10
2022-11-30T07:30:01.159Z,2.00
2022-11-30T07:32:30.923Z,2.00
2022-11-30T07:34:59.094Z,2.10
2022-11-30T07:37:27.792Z,2.00
2022-11-30T07:39:56.232Z,2.10
2022-11-30T07:42:24.514Z,2.00
2022-11-30T07:44:58.214Z,2.00
2022-11-30T07:47:27.016Z,2.00
2022-11-30T07:49:57.420Z,2.10
2022-11-30T07:52:25.843Z,2.10
2022-11-30T07:54:54.055Z,2.10
2022-11-30T07:57:22.087Z,2.00
2022-11-30T07:59:50.492Z,2.00
2022-11-30T08:02:19.209Z,2.00
2022-11-30T08:04:47.846Z,2.10
2022-11-30T08:07:17.963Z,2.10
2022-11-30T08:09:46.396Z,2.10
2022-11-30T08:12:14.626Z,2.20
2022-11-30T08:15:17.397Z,2.30
2022-11-30T08:17:30.961Z,2.30
2022-11-30T08:19:59.190Z,2.20
2022-11-30T08:22:28.943Z,2.30
2022-11-30T08:24:57.059Z,2.30
2022-11-30T08:27:25.127Z,2.40
2022-11-30T08:29:53.360Z,2.50
2022-11-30T08:32:32.859Z,2.50
2022-11-30T08:35:08.354Z,2.40
2022-11-30T08:37:39.032Z,2.40
2022-11-30T08:40:08.485Z,2.40
2022-11-30T08:42:36.495Z,2.50
2022-11-30T08:45:12.532Z,2.60
2022-11-30T08:47:51.053Z,2.50
2022-11-30T08:50:19.193Z,2.50
2022-11-30T08:52:51.162Z,2.60
2022-11-30T08:55:19.146Z,2.50
2022-11-30T08:57:59.690Z,2.50
2022-11-30T09:00:27.801Z,2.50
2022-11-30T09:02:57.427Z,2.50
2022-11-30T09:05:26.066Z,2.40
2022-11-30T09:08:02.852Z,2.60
2022-11-30T09:10:30.906Z,2.50
2022-11-30T09:12:59.077Z,2.60
2022-11-30T09:15:27.248Z,2.60
2022-11-30T09:17:55.561Z,2.60
2022-11-30T09:20:36.125Z,2.70
2022-11-30T09:23:05.724Z,2.80
2022-11-30T09:25:33.891Z,2.70
2022-11-30T09:28:02.073Z,2.80
2022-11-30T09:30:37.390Z,2.70
2022-11-30T09:33:24.666Z,2.80
2022-11-30T09:35:59.393Z,2.80
2022-11-30T09:38:32.754Z,2.80
2022-11-30T09:41:03.307Z,2.80
2022-11-30T09:43:44.478Z,2.90
2022-11-30T09:46:12.939Z,2.90
2022-11-30T09:48:54.626Z,3.00
2022-11-30T09:51:27.805Z,3.00
2022-11-30T09:54:01.865Z,3.10
2022-11-30T09:56:33.198Z,3.10
2022-11-30T09:59:06.156Z,3.00
2022-11-30T10:01:44.935Z,3.10
2022-11-30T10:04:22.950Z,3.20
2022-11-30T10:07:03.463Z,3.30
2022-11-30T10:10:02.875Z,3.40
2022-11-30T10:12:43.009Z,3.30
2022-11-30T10:15:22.118Z,3.20
2022-11-30T10:21:01.850Z,3.20
2022-11-30T10:23:48.495Z,3.20
2022-11-30T10:26:22.389Z,3.10
2022-11-30T10:28:52.850Z,3.20
2022-11-30T10:31:28.435Z,3.30
2022-11-30T10:34:07.222Z,3.30
2022-11-30T10:36:43.258Z,3.40
2022-11-30T10:39:21.812Z,3.40
2022-11-30T10:42:06.291Z,3.50
2022-11-30T10:44:40.066Z,3.50
2022-11-30T10:47:14.574Z,3.50
2022-11-30T10:49:47.660Z,3.50
2022-11-30T10:52:22.781Z,3.60
2022-11-30T10:55:02.306Z,3.60
2022-11-30T10:57:34.352Z,3.60
2022-11-30T11:00:06.717Z,3.50
2022-11-30T11:02:41.778Z,3.50
2022-11-30T11:05:17.188Z,3.50
2022-11-30T11:07:52.492Z,3.50
2022-11-30T11:10:22.922Z,3.60
2022-11-30T11:12:54.887Z,3.60
2022-11-30T11:15:25.302Z,3.60
2022-11-30T11:17:54.320Z,3.60
2022-11-30T11:20:39.014Z,3.60
2022-11-30T11:23:08.580Z,3.50
2022-11-30T11:25:47.691Z,3.60
2022-11-30T11:28:20.246Z,3.70
2022-11-30T11:30:52.152Z,3.80
2022-11-30T11:33:23.443Z,3.60
2022-11-30T11:35:53.049Z,3.70
2022-11-30T11:38:29.896Z,3.80
2022-11-30T11:41:01.181Z,3.70
2022-11-30T11:43:33.554Z,3.20
2022-11-30T11:46:11.358Z,3.50
2022-11-30T11:48:41.920Z,3.40
2022-11-30T11:51:25.396Z,3.40
2022-11-30T11:53:56.940Z,3.30
2022-11-30T11:56:27.922Z,3.40
2022-11-30T11:59:02.317Z,3.50
2022-11-30T12:01:47.970Z,3.50
2022-11-30T12:04:49.183Z,3.50
2022-11-30T12:07:25.624Z,3.50
2022-11-30T12:10:16.490Z,3.60
2022-11-30T12:12:55.098Z,3.70
2022-11-30T12:15:33.484Z,3.70
2022-11-30T12:18:14.329Z,3.70
2022-11-30T12:20:53.723Z,3.60
2022-11-30T12:23:37.893Z,3.50
2022-11-30T12:26:18.128Z,3.60
2022-11-30T12:28:59.906Z,3.60
2022-11-30T12:31:39.993Z,3.60
2022-11-30T12:34:17.271Z,3.50
2022-11-30T12:36:57.349Z,3.60
2022-11-30T12:39:34.758Z,3.70
2022-11-30T12:42:09.269Z,3.60
2022-11-30T12:44:50.608Z,3.70
2022-11-30T12:47:53.840Z,3.80
2022-11-30T12:50:44.203Z,3.60
2022-11-30T12:53:21.997Z,3.50
2022-11-30T12:56:10.378Z,3.60
2022-11-30T12:58:44.598Z,3.50
2022-11-30T13:01:23.972Z,3.50
2022-11-30T13:04:00.447Z,3.60
2022-11-30T13:06:33.235Z,3.60
2022-11-30T13:09:07.018Z,3.60
2022-11-30T13:11:44.633Z,3.60
2022-11-30T13:14:16.389Z,3.60
2022-11-30T13:16:45.337Z,3.60
2022-11-30T13:19:29.362Z,3.60
2022-11-30T13:22:03.943Z,3.60
2022-11-30T13:24:38.761Z,3.70
2022-11-30T13:27:20.687Z,3.70
2022-11-30T13:30:09.022Z,3.70
2022-11-30T13:33:18.822Z,3.80
2022-11-30T13:35:55.757Z,3.80
2022-11-30T13:38:39.502Z,3.80
2022-11-30T13:41:09.452Z,3.70
2022-11-30T13:43:42.874Z,3.70
2022-11-30T13:46:17.174Z,3.80
2022-11-30T13:48:46.998Z,3.80
2022-11-30T13:51:36.190Z,3.80
2022-11-30T13:54:38.466Z,3.80
2022-11-30T13:57:17.624Z,3.80
2022-11-30T13:59:51.560Z,3.80
2022-11-30T14:05:46.607Z,3.70
2022-11-30T14:08:33.753Z,3.70
2022-11-30T14:11:39.910Z,3.70
2022-11-30T14:14:45.665Z,3.60
2022-11-30T14:17:22.180Z,3.60
2022-11-30T14:19:53.564Z,3.50
2022-11-30T14:22:22.920Z,3.40
2022-11-30T14:24:53.218Z,3.40
2022-11-30T14:27:25.080Z,3.20
2022-11-30T14:29:58.163Z,3.50
2022-11-30T14:32:36.278Z,3.30
2022-11-30T14:35:10.957Z,3.10
2022-11-30T14:37:44.744Z,3.30
2022-11-30T14:40:20.595Z,3.40
2022-11-30T14:42:51.250Z,3.20
2022-11-30T14:45:24.426Z,3.30
2022-11-30T14:47:54.881Z,3.30
2022-11-30T14:50:26.022Z,3.20
2022-11-30T14:53:04.362Z,3.10
2022-11-30T14:55:40.278Z,2.70
2022-11-30T14:58:20.268Z,3.20
2022-11-30T15:00:53.343Z,2.90
2022-11-30T15:03:26.987Z,2.50
2022-11-30T15:05:58.942Z,2.60
2022-11-30T15:08:35.586Z,2.20
2022-11-30T15:11:10.959Z,2.70
2022-11-30T15:13:51.056Z,2.80
2022-11-30T15:16:22.116Z,2.80
2022-11-30T15:19:01.746Z,2.80
2022-11-30T15:21:34.125Z,2.70
2022-11-30T15:24:05.812Z,2.70
2022-11-30T15:32:56.337Z,2.20
2022-11-30T15:35:43.903Z,2.50
2022-11-30T15:38:20.977Z,2.50
2022-11-30T15:40:54.530Z,2.70
2022-11-30T15:43:26.275Z,2.50
2022-11-30T15:46:25.505Z,2.50
2022-11-30T15:49:07.895Z,2.50
2022-11-30T15:51:41.087Z,2.30
2022-11-30T15:54:20.282Z,2.30
2022-11-30T15:56:57.515Z,2.30
2022-11-30T15:59:38.267Z,2.30
2022-11-30T16:02:08.974Z,1.90
2022-11-30T16:05:23.759Z,2.20
2022-11-30T16:07:55.060Z,2.20
2022-11-30T16:10:25.771Z,1.60
2022-11-30T16:12:56.378Z,2.10
2022-11-30T16:15:26.673Z,2.10
2022-11-30T16:17:57.270Z,2.20
2022-11-30T16:20:27.157Z,2.10
2022-11-30T16:22:55.222Z,2.70
2022-11-30T16:25:25.684Z,2.20
2022-11-30T16:27:54.219Z,2.00
2022-11-30T16:30:31.501Z,2.00
2022-11-30T16:33:01.776Z,2.10
2022-11-30T16:35:37.713Z,2.30
2022-11-30T16:38:06.814Z,2.20
2022-11-30T16:40:38.804Z,2.40
2022-11-30T16:43:07.579Z,2.20
2022-11-30T16:45:38.068Z,2.00
2022-11-30T16:48:06.644Z,1.80
2022-11-30T16:50:36.534Z,2.00
2022-11-30T16:53:06.070Z,2.20
2022-11-30T16:55:50.536Z,1.70
2022-11-30T16:58:19.121Z,2.10
2022-11-30T17:00:47.434Z,1.80
2022-11-30T17:03:22.095Z,1.90
2022-11-30T17:05:51.674Z,1.20
2022-11-30T17:08:19.750Z,1.90
2022-11-30T17:10:53.129Z,1.50
2022-11-30T17:13:23.047Z,1.80
2022-11-30T17:15:51.844Z,1.70
2022-11-30T17:18:20.469Z,1.90
2022-11-30T17:24:05.649Z,1.70
2022-11-30T17:26:33.844Z,1.60
2022-11-30T17:29:02.472Z,1.70
2022-11-30T17:31:30.691Z,1.70
2022-11-30T17:33:59.192Z,1.80
2022-11-30T17:36:29.429Z,1.10
2022-11-30T17:38:57.710Z,1.50
2022-11-30T17:41:32.307Z,1.80
2022-11-30T17:44:01.890Z,1.70
2022-11-30T17:46:30.252Z,1.80
2022-11-30T17:48:58.570Z,1.70
2022-11-30T17:51:34.387Z,1.60
2022-11-30T17:54:03.157Z,1.20
2022-11-30T17:56:31.191Z,1.70
2022-11-30T17:59:01.021Z,1.70
2022-11-30T18:01:29.303Z,1.00
2022-11-30T18:03:59.033Z,1.90
2022-11-30T18:06:32.533Z,1.80
2022-11-30T18:09:00.798Z,1.10
2022-11-30T18:11:29.000Z,1.40
2022-11-30T18:14:00.453Z,2.00
2022-11-30T18:16:30.566Z,1.50
2022-11-30T18:19:00.345Z,1.10
2022-11-30T18:21:31.301Z,1.60
2022-11-30T18:23:59.851Z,1.80
2022-11-30T18:26:28.706Z,1.40
2022-11-30T18:28:58.868Z,1.80
2022-11-30T18:31:27.803Z,2.10
2022-11-30T18:33:57.295Z,1.70
2022-11-30T18:36:26.009Z,1.70
2022-11-30T18:38:59.462Z,1.80
2022-11-30T18:41:30.141Z,1.60
2022-11-30T18:43:58.580Z,1.70
2022-11-30T18:46:27.730Z,1.60
2022-11-30T18:48:56.423Z,1.90
2022-11-30T18:51:43.566Z,1.90
2022-11-30T18:54:13.327Z,1.70
2022-11-30T18:56:41.526Z,1.00
2022-11-30T18:59:12.562Z,1.70
2022-11-30T19:01:43.687Z,1.60
2022-11-30T19:04:12.826Z,1.60
2022-11-30T19:06:47.143Z,1.80
2022-11-30T19:09:19.012Z,1.30
2022-11-30T19:11:47.681Z,1.00
2022-11-30T19:14:17.734Z,1.70
2022-11-30T19:16:51.583Z,1.60
2022-11-30T19:19:19.941Z,1.40
2022-11-30T19:21:53.091Z,1.70
2022-11-30T19:24:22.650Z,0.90
2022-11-30T19:26:52.751Z,1.50
2022-11-30T19:29:21.341Z,1.30
2022-11-30T19:31:49.847Z,1.60
2022-11-30T19:34:30.749Z,2.60
2022-11-30T19:36:58.920Z,1.60
2022-11-30T19:39:28.774Z,1.50
2022-11-30T19:41:59.507Z,1.60
2022-11-30T19:44:27.803Z,1.50
2022-11-30T19:47:04.957Z,1.40
2022-11-30T19:49:33.101Z,1.80
2022-11-30T19:52:01.703Z,0.90
2022-11-30T19:54:31.555Z,1.70
2022-11-30T19:57:07.431Z,1.60
2022-11-30T19:59:35.746Z,1.60
2022-11-30T20:02:04.437Z,1.50
2022-11-30T20:04:32.907Z,1.70
2022-11-30T20:07:08.742Z,1.90
2022-11-30T20:09:53.159Z,1.90
2022-11-30T20:12:22.252Z,1.70
2022-11-30T20:14:52.280Z,1.90
2022-11-30T20:17:20.587Z,1.70
2022-11-30T20:19:53.275Z,1.30
2022-11-30T20:22:21.433Z,1.80
2022-11-30T20:24:53.086Z,2.10
2022-11-30T20:27:24.845Z,1.00
2022-11-30T20:29:57.786Z,1.20
2022-11-30T20:32:27.949Z,0.90
2022-11-30T20:35:03.475Z,1.30
2022-11-30T20:37:33.966Z,1.70
2022-11-30T20:40:07.546Z,2.50
2022-11-30T20:42:43.508Z,2.00
2022-11-30T20:45:17.397Z,1.40
2022-11-30T20:47:50.868Z,1.50
2022-11-30T20:50:20.851Z,2.00
2022-11-30T20:52:49.585Z,1.90
2022-11-30T20:55:19.849Z,2.10
2022-11-30T20:57:50.069Z,1.90
2022-11-30T21:00:19.155Z,2.00
2022-11-30T21:02:47.557Z,1.80
2022-11-30T21:05:18.990Z,0.90
2022-11-30T21:07:49.708Z,1.60
2022-11-30T21:10:18.189Z,0.60
2022-11-30T21:12:46.626Z,1.70
2022-11-30T21:15:17.339Z,1.20
2022-11-30T21:17:45.969Z,1.60
2022-11-30T21:20:17.013Z,1.80
2022-11-30T21:22:46.612Z,1.90
2022-11-30T21:25:20.442Z,1.60
2022-11-30T21:27:52.545Z,1.70
2022-11-30T21:30:23.099Z,0.50
2022-11-30T21:32:53.843Z,1.60
2022-11-30T21:35:22.023Z,1.80
2022-11-30T21:37:50.294Z,1.70
2022-11-30T21:40:18.861Z,2.10
2022-11-30T21:42:48.038Z,1.70
2022-11-30T21:45:19.521Z,1.50
2022-11-30T21:47:49.201Z,1.50
2022-11-30T21:50:19.885Z,1.60
2022-11-30T21:52:50.615Z,1.70
2022-11-30T21:55:39.232Z,1.20
2022-11-30T21:58:07.669Z,1.70
2022-11-30T22:00:35.997Z,1.60
2022-11-30T22:03:05.991Z,1.70
2022-11-30T22:05:34.295Z,1.10
2022-11-30T22:08:03.113Z,1.50
2022-11-30T22:10:31.219Z,1.50
2022-11-30T22:12:59.294Z,1.90
2022-11-30T22:15:27.352Z,1.50
2022-11-30T22:17:55.604Z,1.60
2022-11-30T22:20:33.398Z,1.40
2022-11-30T22:23:01.584Z,1.00
2022-11-30T22:25:38.587Z,1.20
2022-11-30T22:28:07.181Z,1.90
2022-11-30T22:30:35.985Z,1.90
2022-11-30T22:33:04.741Z,1.70
2022-11-30T22:35:36.647Z,2.00
2022-11-30T22:38:04.917Z,1.10
2022-11-30T22:40:33.382Z,1.20
2022-11-30T22:43:01.712Z,1.50
2022-11-30T22:45:30.891Z,1.00
2022-11-30T22:47:59.474Z,2.00
2022-11-30T22:50:30.112Z,1.90
2022-11-30T22:53:03.587Z,1.40
2022-11-30T22:55:33.658Z,0.90
2022-11-30T22:58:02.176Z,1.80
2022-11-30T23:00:30.367Z,1.90
2022-11-30T23:02:59.870Z,1.80
2022-11-30T23:05:30.149Z,1.00
2022-11-30T23:08:00.219Z,0.90
2022-11-30T23:10:28.736Z,1.60
2022-11-30T23:12:59.907Z,2.00
2022-11-30T23:15:28.576Z,1.50
2022-11-30T23:17:56.765Z,1.70
2022-11-30T23:20:25.852Z,1.50
2022-11-30T23:22:54.678Z,1.40
2022-11-30T23:25:24.887Z,1.50
2022-11-30T23:27:53.727Z,1.00
2022-11-30T23:30:21.839Z,1.40
2022-11-30T23:32:50.362Z,1.70
2022-11-30T23:35:18.837Z,0.90
2022-11-30T23:37:47.123Z,1.30
2022-11-30T23:40:15.588Z,0.80
2022-11-30T23:42:45.666Z,1.30
2022-11-30T23:45:13.872Z,1.50
2022-11-30T23:47:42.226Z,1.80
2022-11-30T23:50:11.560Z,1.40
2022-11-30T23:52:39.926Z,1.40
2022-11-30T23:55:09.481Z,1.70
2022-11-30T23:57:37.669Z,1.30
